Flight Track Log - Related Links

Times and Time Zones

All times are in EDT time to prevent confusion due to time zone crossing. See the N508QS flight status page for this flight to view local times or setup timezone preferences in your user account.


Time Position Orientation Groundspeed Altitude Reporting Facility
EDT Latitude Longitude Course Direction KTS MPH feet Rate Location/Type
Sat 05:07:30 PM 42.4667 -71.2667 180° South 149 171 1,200  Level KA90
Sat 05:08:32 PM 42.4333 -71.2667 180° South 194 223 2,700 2,566 Climbing KA90
Sat 05:09:55 PM 42.3661 -71.3639 227° Southwest 234 269 7,400 3,566 Climbing Boston Center
Sat 05:10:55 PM 42.3356 -71.4458 243° Southwest 266 306 11,200 2,950 Climbing Boston Center
Sat 05:11:55 PM 42.3389 -71.5833 272° West 317 365 13,300 2,000 Climbing Boston Center
Sat 05:12:55 PM 42.3417 -71.7069 272° West 357 411 15,200 1,350 Climbing Boston Center
Sat 05:13:55 PM 42.3258 -71.8503 262° West 368 423 16,000 400 Climbing Boston Center
Sat 05:14:55 PM 42.2703 -71.9772 239° Southwest 378 435 16,000  Level Boston Center
Sat 05:15:55 PM 42.2144 -72.0981 238° Southwest 390 449 16,000  Level Boston Center
Sat 05:16:55 PM 42.1583 -72.2217 239° Southwest 390 449 16,000  Level Boston Center
Sat 05:17:55 PM 42.1022 -72.3422 238° Southwest 390 449 16,000  Level Boston Center
Sat 05:18:55 PM 42.0522 -72.4542 239° Southwest 390 449 16,000  Level Boston Center
Sat 05:19:55 PM 41.9878 -72.5881 237° Southwest 390 449 16,000  Level Boston Center
Sat 05:20:55 PM 41.9311 -72.7136 239° Southwest 390 449 16,000 -300 Level Boston Center
Sat 05:21:55 PM 41.8786 -72.8361 240° Southwest 390 449 15,400 -1,000 Descending Boston Center
Sat 05:22:55 PM 41.8303 -72.9528 241° Southwest 378 435 14,000 -700 Descending Boston Center
Sat 05:23:55 PM 41.7858 -73.0636 242° Southwest 356 410 14,000  Level Boston Center
Sat 05:24:55 PM 41.7436 -73.1661 241° Southwest 350 403 14,000  Level Boston Center
Sat 05:25:55 PM 41.6992 -73.2714 241° Southwest 316 364 14,000 -250 Level Boston Center
Sat 05:26:55 PM 41.6631 -73.3486 238° Southwest 268 308 13,500 -909 Descending Boston Center
Sat 05:28:07 PM 41.6292 -73.4289 241° Southwest 251 289 12,000 -1,409 Descending Boston Center
Sat 05:29:07 PM 41.5908 -73.5225 241° Southwest 245 282 10,400 -1,400 Descending Boston Center
Sat 05:30:07 PM 41.5589 -73.5942 239° Southwest 245 282 9,200 -1,300 Descending Boston Center
Sat 05:31:07 PM 41.5244 -73.6767 241° Southwest 245 282 7,800 -1,100 Descending Boston Center
Sat 05:32:07 PM 41.4947 -73.7428 239° Southwest 245 282 7,000 -400 Descending Boston Center
Sat 05:33:07 PM 41.4625 -73.8197 241° Southwest 229 264 7,000  Level Boston Center
Sat 05:34:07 PM 41.4367 -73.8800 240° Southwest 224 258 7,000  Level Boston Center
Sat 05:35:07 PM 41.4547 -73.9414 291° West 171 197 7,000 53 Level Boston Center
Sat 05:36:00 PM 41.5000 -73.9333 North 217 250 7,100 -454 Climbing New York TRACON
Sat 05:37:06 PM 41.4500 -73.8667 135° Southeast 272 313 6,100 -952 Descending New York TRACON
Sat 05:38:06 PM 41.3833 -73.8833 191° South 262 302 5,100 -900 Descending New York TRACON
Sat 05:39:06 PM 41.3167 -73.8833 180° South 217 250 4,300 -789 Descending New York TRACON
Sat 05:40:00 PM 41.2833 -73.8667 159° South 178 205 3,600 -632 Descending New York TRACON
Sat 05:41:00 PM 41.2333 -73.8333 153° Southeast 173 199 3,100 -250 Descending New York TRACON
Sat 05:42:00 PM 41.2000 -73.8000 143° Southeast 161 185 3,100 -350 Level New York TRACON
Sat 05:43:00 PM 41.1667 -73.7833 159° South 148 170 2,400 -714 Descending New York TRACON
Sat 05:44:06 PM 41.1167 -73.7500 153° Southeast 142 163 1,600 -750 Descending New York TRACON
Sat 05:45:00 PM 41.1000 -73.7333 143° Southeast 125 144 900 -778 Descending New York TRACON

Login

Don't have an account? Register now (free) for customized features, flight alerts, and more!